DW8248 Weather Reports


time (UTC)temp
F
wind
direction
speed
knots
gust
knots
rain 1hr
in
rain 24hr
in
rain mn
in
humidity
%
barometer
mb
20190121015213 50 290 13.0 16.5 0.00 0.14 0.14 83 1018.7
20190121014232 50 288 13.0 15.6 0.00 0.14 0.14 82 1018.3
20190121013235 50 283 12.2 17.4 0.00 0.14 0.14 82 1018.0
20190121012224 51 294 13.9 25.2 0.00 0.14 0.14 82 1017.8
20190121011210 51 292 17.4 25.2 0.00 0.14 0.14 82 1017.8
20190121010203 52 294 19.1 24.3 0.00 0.14 0.14 81 1017.9
20190121005208 52 281 17.4 26.1 0.00 0.14 0.14 82 1017.8
20190121004144 53 289 19.1 26.1 0.00 0.14 0.14 80 1017.7
20190121003143 53 287 17.4 24.3 0.00 0.14 0.14 81 1017.3
20190121002142 53 293 18.2 24.3 0.00 0.14 0.14 80 1017.0
20190121001203 54 285 16.5 21.7 0.00 0.14 0.14 78 1016.8
20190121000209 55 293 15.6 20.0 0.00 0.14 0.14 78 1016.5
20190120235231 55 274 16.5 25.2 0.00 0.14 0.14 77 1016.2
20190120234236 56 286 17.4 25.2 0.00 0.14 0.14 76 1015.9
20190120233233 56 273 18.2 22.6 0.00 0.14 0.14 74 1015.5
20190120232211 57 276 16.5 22.6 0.00 0.14 0.14 75 1015.2
20190120231144 58 278 16.5 20.9 0.00 0.14 0.14 73 1014.8
20190120230128 58 285 15.6 20.0 0.00 0.14 0.14 73 1014.6
20190120225117 59 280 16.5 19.1 0.00 0.14 0.14 71 1014.4
20190120224107 59 275 15.6 20.0 0.00 0.14 0.14 71 1014.3
20190120223038 59 273 16.5 23.5 0.00 0.14 0.14 69 1014.2
20190120222012 60 273 18.2 23.5 0.00 0.14 0.14 70 1013.8
20190120220955 60 270 17.4 22.6 0.00 0.14 0.14 69 1013.6
20190120220009 60 270 16.5 22.6 0.00 0.14 0.14 69 1013.5
20190120215006 60 290 16.5 24.3 0.00 0.14 0.14 70 1013.4
20190120214028 60 260 19.1 26.1 0.00 0.14 0.14 70 1013.4
20190120213036 61 262 20.9 27.8 0.00 0.14 0.14 71 1013.1
20190120212024 61 274 20.9 27.8 0.00 0.14 0.14 69 1012.8
20190120210948 61 265 20.0 26.9 0.00 0.14 0.14 68 1012.8
20190120205933 62 271 22.6 31.3 0.00 0.14 0.14 71 1012.6
20190120204918 62 276 23.5 31.3 0.00 0.14 0.14 68 1012.4
20190120203915 62 280 22.6 27.8 0.00 0.14 0.14 68 1012.2
20190120202933 62 265 20.9 27.8 0.00 0.14 0.14 67 1012.1
20190120201932 63 286 20.9 29.5 0.00 0.14 0.14 67 1012.0
20190120200905 63 275 21.7 29.5 0.00 0.14 0.14 67 1011.8
20190120195903 63 286 20.9 28.7 0.00 0.14 0.14 66 1011.8
20190120194834 63 276 24.3 31.3 0.00 0.14 0.14 65 1011.8
20190120193851 64 280 24.3 32.2 0.00 0.14 0.14 63 1011.7
20190120192818 64 273 22.6 32.2 0.00 0.14 0.14 63 1011.5
20190120191742 64 262 23.5 30.4 0.00 0.14 0.14 63 1011.4
20190120190738 64 275 24.3 31.3 0.00 0.14 0.14 65 1011.4
20190120185745 64 281 24.3 32.2 0.00 0.14 0.14 65 1011.3
20190120184759 64 271 24.3 32.2 0.00 0.14 0.14 64 1011.2
20190120183808 64 275 23.5 29.5 0.00 0.14 0.14 66 1011.1
20190120182748 65 271 22.6 29.5 0.00 0.14 0.14 64 1010.9
20190120181721 65 267 22.6 28.7 0.00 0.14 0.14 64 1011.0
20190120180738 65 277 24.3 28.7 0.00 0.14 0.14 64 1011.1
20190120175714 65 277 20.9 28.7 0.00 0.14 0.14 65 1011.1
20190120174639 65 261 20.9 26.9 0.00 0.14 0.14 64 1011.2
20190120173614 65 267 22.6 31.3 0.00 0.14 0.14 65 1011.1
20190120172616 65 278 24.3 31.3 0.00 0.14 0.14 66 1011.2
20190120171624 65 261 22.6 29.5 0.00 0.14 0.14 65 1011.3
20190120170608 65 276 21.7 28.7 0.00 0.14 0.14 67 1011.3
20190120165557 65 274 21.7 28.7 0.00 0.14 0.14 66 1011.2
20190120164551 65 269 23.5 30.4 0.00 0.14 0.14 66 1011.3
20190120163613 64 273 23.5 30.4 0.00 0.14 0.14 69 1011.5
20190120162630 64 271 21.7 29.5 0.00 0.14 0.14 69 1011.4
20190120161635 64 261 24.3 30.4 0.00 0.14 0.14 69 1011.5
20190120160653 64 276 21.7 30.4 0.00 0.14 0.14 69 1011.5
20190120155656 64 269 22.6 30.4 0.00 0.14 0.14 73 1011.6
20190120154634 65 261 22.6 30.4 0.00 0.14 0.14 71 1011.5
20190120153638 65 273 20.9 28.7 0.00 0.14 0.14 73 1011.3
20190120152649 65 265 22.6 28.7 0.00 0.14 0.14 74 1011.3
20190120151707 64 260 20.0 27.8 0.00 0.14 0.14 73 1011.4
20190120150655 65 273 17.4 26.1 0.00 0.14 0.14 75 1011.3
20190120145625 65 269 17.4 25.2 0.00 0.14 0.14 76 1011.1
20190120144550 64 265 16.5 23.5 0.00 0.14 0.14 77 1011.0
20190120143545 64 277 16.5 23.5 0.00 0.14 0.14 81 1010.8
20190120142559 63 254 18.2 26.9 0.00 0.14 0.14 83 1010.7
20190120141621 63 266 19.1 26.9 0.00 0.14 0.14 81 1010.6
20190120140625 64 288 20.0 26.9 0.00 0.14 0.14 83 1010.5
20190120135624 64 276 17.4 23.5 0.00 0.13 0.13 86 1010.4
20190120134602 64 281 15.6 20.0 0.00 0.13 0.13 86 1010.2
20190120133606 64 270 14.8 21.7 0.00 0.13 0.13 86 1010.1
20190120132611 64 282 15.6 21.7 0.00 0.13 0.13 87 1010.1
20190120131631 64 276 13.9 20.9 0.00 0.13 0.13 87 1010.1
20190120130558 64 270 14.8 21.7 0.00 0.13 0.13 88 1009.9
20190120125542 64 277 16.5 21.7 0.00 0.13 0.13 89 1009.9
20190120124535 64 289 14.8 19.1 0.00 0.13 0.13 90 1009.8
20190120123508 64 290 15.6 20.0 0.00 0.13 0.13 90 1009.6
20190120122509 64 289 18.2 23.5 0.00 0.13 0.13 90 1009.5
20190120121435 66 292 16.5 23.5 0.00 0.13 0.13 91 1009.2
20190120120411 67 274 14.8 21.7 0.00 0.13 0.13 91 1008.8
20190120115421 67 259 15.6 21.7 0.00 0.13 0.13 92 1008.6
20190120114412 67 245 13.0 19.1 0.00 0.13 0.13 93 1008.4
20190120113353 67 231 13.0 19.1 0.05 0.13 0.13 93 1008.4
20190120112339 67 225 13.9 20.9 0.16 0.13 0.13 93 1008.0
20190120111356 67 220 15.6 20.9 0.09 0.11 0.11 93 1008.1
20190120110404 68 219 14.8 19.1 0.11 0.09 0.09 93 1007.9
20190120105408 68 219 15.6 22.6 0.13 0.07 0.08 92 1007.6
20190120104340 68 225 15.6 22.6 0.00 0.06 0.06 92 1007.7
20190120103331 68 217 16.5 21.7 0.00 0.05 0.05 91 1007.6
20190120102349 68 200 15.6 21.7 0.00 0.05 0.05 92 1007.5
20190120101330 68 214 14.8 21.7 0.00 0.05 0.05 93 1007.5
20190120100301 68 203 14.8 20.9 0.04 0.05 0.05 92 1007.6
20190120095257 68 195 13.0 19.1 0.04 0.04 0.04 92 1007.5
20190120094311 67 206 13.0 17.4 0.12 0.04 0.04 92 1007.8
20190120093317 68 205 13.9 20.0 0.00 0.00 0.00 91 1007.9
20190120092259 68 194 14.8 21.7 0.00 0.00 0.00 90 1008.0
20190120091302 68 194 16.5 21.7 0.00 0.00 0.00 89 1008.1
20190120090244 68 198 15.6 20.0 0.00 0.00 0.00 89 1008.2
20190120085259 68 192 14.8 19.1 0.00 0.00 0.00 88 1008.4
20190120084229 68 199 13.9 19.1 0.00 0.00 0.00 89 1008.6
20190120083202 67 198 13.9 19.1 0.00 0.00 0.00 88 1008.8
20190120082204 67 211 13.9 17.4 0.00 0.00 0.00 88 1008.8
20190120081151 67 196 13.9 18.2 0.00 0.00 0.00 88 1008.8
20190120080210 67 198 14.8 19.1 0.00 0.00 0.00 88 1008.9
20190120075136 67 193 14.8 20.0 0.00 0.00 0.00 88 1009.1
20190120074143 67 192 13.9 20.0 0.00 0.00 0.00 88 1009.1
20190120073113 66 180 13.9 18.2 0.00 0.00 0.00 87 1009.4
20190120072101 66 186 13.9 18.2 0.00 0.00 0.00 87 1009.5
20190120071046 66 189 12.2 18.2 0.00 0.00 0.00 87 1009.5
20190120070019 66 184 12.2 18.2 0.00 0.00 0.00 87 1009.6
20190120065022 66 190 12.2 18.2 0.00 0.00 0.00 86 1009.8
20190120063957 66 188 13.0 19.1 0.00 0.00 0.00 86 1009.9
20190120062956 66 184 13.0 19.1 0.00 0.00 0.00 85 1010.2
20190120062005 67 191 11.3 16.5 0.00 0.00 0.00 85 1010.4
20190120060953 66 196 11.3 14.8 0.00 0.00 0.00 84 1010.5
20190120055934 66 187 12.2 17.4 0.00 0.00 0.00 84 1010.6
20190120054900 66 191 12.2 17.4 0.00 0.00 0.00 83 1010.9
20190120053908 67 186 13.0 16.5 0.00 0.00 0.00 83 1011.0
20190120052924 67 192 12.2 16.5 0.00 0.00 0.00 83 1011.4
20190120051910 67 191 13.9 18.2 0.00 0.00 0.00 83 1011.4
20190120050915 67 191 13.9 18.2 0.00 0.00 0.00 82 1011.6
20190120045936 67 192 13.9 18.2 0.00 0.00 0.00 81 1011.7
20190120044937 67 186 13.9 18.2 0.00 0.00 0.00 81 1011.7
20190120043958 67 188 13.0 20.0 0.00 0.00 0.00 81 1011.6
20190120042950 67 189 13.0 20.0 0.00 0.00 0.00 80 1011.7
20190120042007 67 182 11.3 17.4 0.00 0.00 0.00 80 1011.8
20190120041028 67 186 9.6 14.8 0.00 0.00 0.00 81 1011.9
20190120040037 67 180 8.7 14.8 0.00 0.00 0.00 81 1011.9
20190120035005 67 178 8.7 12.2 0.00 0.00 0.00 81 1011.9
20190120034025 67 177 7.8 11.3 0.00 0.00 0.00 82 1011.9
20190120033039 67 174 7.8 13.9 0.00 0.00 0.00 81 1011.9
20190120032027 68 172 8.7 13.9 0.00 0.00 0.00 81 1012.0
20190120030958 68 178 7.8 13.0 0.00 0.00 0.00 81 1012.1
20190120025940 68 166 8.7 12.2 0.00 0.00 0.00 82 1012.1
20190120024920 68 180 8.7 11.3 0.00 0.00 0.00 81 1012.2
20190120023853 68 176 8.7 13.9 0.00 0.00 0.00 81 1012.4
20190120022819 68 176 9.6 14.8 0.00 0.00 0.00 81 1012.6
20190120021757 68 180 8.7 14.8 0.00 0.00 0.00 80 1012.5
20190120020740 68 178 9.6 14.8 0.00 0.00 0.00 80 1012.5
20190120015754 68 180 8.7 13.0 0.00 0.00 0.00 81 1012.5